sensor_id;sensor_type;location;lat;lon;timestamp;P1;durP1;ratioP1;P2;durP2;ratioP2
7076;SDS011;3579;48.956;9.154;2023-08-01T00:00:04;2.23;;;1.93;;
7076;SDS011;3579;48.956;9.154;2023-08-01T00:02:32;3.13;;;2.20;;
7076;SDS011;3579;48.956;9.154;2023-08-01T00:04:59;3.57;;;2.30;;
7076;SDS011;3579;48.956;9.154;2023-08-01T00:07:26;3.10;;;2.20;;
7076;SDS011;3579;48.956;9.154;2023-08-01T00:09:53;2.40;;;2.10;;
7076;SDS011;3579;48.956;9.154;2023-08-01T00:12:19;2.30;;;2.10;;
7076;SDS011;3579;48.956;9.154;2023-08-01T00:14:45;2.10;;;1.90;;
7076;SDS011;3579;48.956;9.154;2023-08-01T00:17:11;2.97;;;2.27;;
7076;SDS011;3579;48.956;9.154;2023-08-01T00:19:37;2.30;;;2.10;;
7076;SDS011;3579;48.956;9.154;2023-08-01T00:22:03;2.57;;;2.20;;
7076;SDS011;3579;48.956;9.154;2023-08-01T00:24:29;3.23;;;2.20;;
7076;SDS011;3579;48.956;9.154;2023-08-01T00:26:55;2.40;;;2.07;;
7076;SDS011;3579;48.956;9.154;2023-08-01T00:29:21;2.83;;;2.27;;
7076;SDS011;3579;48.956;9.154;2023-08-01T00:31:48;2.60;;;2.00;;
7076;SDS011;3579;48.956;9.154;2023-08-01T00:34:14;3.20;;;2.33;;
7076;SDS011;3579;48.956;9.154;2023-08-01T00:36:40;2.77;;;2.20;;
7076;SDS011;3579;48.956;9.154;2023-08-01T00:39:06;2.87;;;2.10;;
7076;SDS011;3579;48.956;9.154;2023-08-01T00:41:32;2.43;;;2.03;;
7076;SDS011;3579;48.956;9.154;2023-08-01T00:43:58;2.47;;;2.17;;
7076;SDS011;3579;48.956;9.154;2023-08-01T00:46:24;2.60;;;2.10;;
7076;SDS011;3579;48.956;9.154;2023-08-01T00:48:50;2.30;;;2.00;;
7076;SDS011;3579;48.956;9.154;2023-08-01T00:51:16;2.20;;;1.90;;
7076;SDS011;3579;48.956;9.154;2023-08-01T00:53:43;2.57;;;2.13;;
7076;SDS011;3579;48.956;9.154;2023-08-01T00:56:11;2.73;;;2.23;;
7076;SDS011;3579;48.956;9.154;2023-08-01T00:58:37;2.93;;;2.03;;
7076;SDS011;3579;48.956;9.154;2023-08-01T01:01:03;2.90;;;2.20;;
7076;SDS011;3579;48.956;9.154;2023-08-01T01:03:29;3.20;;;2.57;;
7076;SDS011;3579;48.956;9.154;2023-08-01T01:05:57;3.17;;;2.10;;
7076;SDS011;3579;48.956;9.154;2023-08-01T01:08:34;2.43;;;2.07;;
7076;SDS011;3579;48.956;9.154;2023-08-01T01:11:00;2.60;;;1.97;;
7076;SDS011;3579;48.956;9.154;2023-08-01T01:13:26;2.57;;;2.00;;
7076;SDS011;3579;48.956;9.154;2023-08-01T01:15:52;2.43;;;2.07;;
7076;SDS011;3579;48.956;9.154;2023-08-01T01:18:18;2.60;;;2.00;;
7076;SDS011;3579;48.956;9.154;2023-08-01T01:20:44;3.00;;;2.30;;
7076;SDS011;3579;48.956;9.154;2023-08-01T01:23:10;2.53;;;1.87;;
7076;SDS011;3579;48.956;9.154;2023-08-01T01:25:37;3.40;;;2.17;;
7076;SDS011;3579;48.956;9.154;2023-08-01T01:28:05;2.40;;;1.90;;
7076;SDS011;3579;48.956;9.154;2023-08-01T01:30:32;3.00;;;2.17;;
7076;SDS011;3579;48.956;9.154;2023-08-01T01:33:00;2.53;;;2.03;;
7076;SDS011;3579;48.956;9.154;2023-08-01T01:35:27;3.13;;;2.13;;
7076;SDS011;3579;48.956;9.154;2023-08-01T01:37:53;2.40;;;2.00;;
7076;SDS011;3579;48.956;9.154;2023-08-01T01:40:19;2.83;;;1.90;;
7076;SDS011;3579;48.956;9.154;2023-08-01T01:42:45;2.43;;;2.10;;
7076;SDS011;3579;48.956;9.154;2023-08-01T01:45:11;2.10;;;1.80;;
7076;SDS011;3579;48.956;9.154;2023-08-01T01:47:37;2.13;;;1.90;;
7076;SDS011;3579;48.956;9.154;2023-08-01T01:50:03;2.47;;;2.10;;
7076;SDS011;3579;48.956;9.154;2023-08-01T01:52:30;2.30;;;2.07;;
7076;SDS011;3579;48.956;9.154;2023-08-01T01:54:58;2.90;;;2.20;;
7076;SDS011;3579;48.956;9.154;2023-08-01T01:57:24;5.23;;;2.10;;
7076;SDS011;3579;48.956;9.154;2023-08-01T01:59:50;2.13;;;1.90;;
7076;SDS011;3579;48.956;9.154;2023-08-01T02:02:16;4.33;;;2.20;;
7076;SDS011;3579;48.956;9.154;2023-08-01T02:04:45;3.00;;;2.20;;
7076;SDS011;3579;48.956;9.154;2023-08-01T02:07:12;2.30;;;2.10;;
7076;SDS011;3579;48.956;9.154;2023-08-01T02:09:39;4.73;;;2.30;;
7076;SDS011;3579;48.956;9.154;2023-08-01T02:12:05;2.30;;;2.10;;
7076;SDS011;3579;48.956;9.154;2023-08-01T02:14:34;2.17;;;1.73;;
7076;SDS011;3579;48.956;9.154;2023-08-01T02:17:01;2.17;;;1.80;;
7076;SDS011;3579;48.956;9.154;2023-08-01T02:19:27;2.30;;;2.10;;
7076;SDS011;3579;48.956;9.154;2023-08-01T02:21:53;2.20;;;2.00;;
7076;SDS011;3579;48.956;9.154;2023-08-01T02:24:19;2.00;;;1.80;;
7076;SDS011;3579;48.956;9.154;2023-08-01T02:26:45;2.50;;;2.30;;
7076;SDS011;3579;48.956;9.154;2023-08-01T02:29:12;2.83;;;2.10;;
7076;SDS011;3579;48.956;9.154;2023-08-01T02:31:38;2.20;;;2.00;;
7076;SDS011;3579;48.956;9.154;2023-08-01T02:34:04;4.20;;;2.10;;
7076;SDS011;3579;48.956;9.154;2023-08-01T02:36:30;2.23;;;2.00;;
7076;SDS011;3579;48.956;9.154;2023-08-01T02:38:56;2.00;;;1.80;;
7076;SDS011;3579;48.956;9.154;2023-08-01T02:41:22;2.43;;;2.23;;
7076;SDS011;3579;48.956;9.154;2023-08-01T02:43:48;2.30;;;2.03;;
7076;SDS011;3579;48.956;9.154;2023-08-01T02:46:14;2.00;;;1.80;;
7076;SDS011;3579;48.956;9.154;2023-08-01T02:48:40;2.00;;;1.80;;
7076;SDS011;3579;48.956;9.154;2023-08-01T02:51:06;2.50;;;2.10;;
7076;SDS011;3579;48.956;9.154;2023-08-01T02:53:35;2.10;;;1.83;;
7076;SDS011;3579;48.956;9.154;2023-08-01T02:56:01;2.47;;;1.83;;
7076;SDS011;3579;48.956;9.154;2023-08-01T02:58:30;2.03;;;1.80;;
7076;SDS011;3579;48.956;9.154;2023-08-01T03:00:56;2.63;;;1.97;;
7076;SDS011;3579;48.956;9.154;2023-08-01T03:03:21;2.87;;;1.73;;
7076;SDS011;3579;48.956;9.154;2023-08-01T03:05:47;2.37;;;1.97;;
7076;SDS011;3579;48.956;9.154;2023-08-01T03:08:13;2.33;;;2.00;;
7076;SDS011;3579;48.956;9.154;2023-08-01T03:10:39;2.37;;;2.00;;
7076;SDS011;3579;48.956;9.154;2023-08-01T03:13:06;2.80;;;2.20;;
7076;SDS011;3579;48.956;9.154;2023-08-01T03:15:32;2.27;;;2.07;;
7076;SDS011;3579;48.956;9.154;2023-08-01T03:17:58;2.50;;;2.10;;
7076;SDS011;3579;48.956;9.154;2023-08-01T03:20:24;2.20;;;2.00;;
7076;SDS011;3579;48.956;9.154;2023-08-01T03:22:50;2.03;;;1.83;;
7076;SDS011;3579;48.956;9.154;2023-08-01T03:25:16;2.90;;;2.27;;
7076;SDS011;3579;48.956;9.154;2023-08-01T03:27:42;3.87;;;2.03;;
7076;SDS011;3579;48.956;9.154;2023-08-01T03:30:08;2.33;;;2.10;;
7076;SDS011;3579;48.956;9.154;2023-08-01T03:32:35;2.30;;;1.90;;
7076;SDS011;3579;48.956;9.154;2023-08-01T03:35:03;2.40;;;2.00;;
7076;SDS011;3579;48.956;9.154;2023-08-01T03:37:30;2.17;;;1.97;;
7076;SDS011;3579;48.956;9.154;2023-08-01T03:39:56;2.33;;;1.90;;
7076;SDS011;3579;48.956;9.154;2023-08-01T03:42:22;2.37;;;1.97;;
7076;SDS011;3579;48.956;9.154;2023-08-01T03:44:48;3.57;;;2.03;;
7076;SDS011;3579;48.956;9.154;2023-08-01T03:47:14;2.60;;;2.07;;
7076;SDS011;3579;48.956;9.154;2023-08-01T03:49:40;3.07;;;2.03;;
7076;SDS011;3579;48.956;9.154;2023-08-01T03:52:06;2.40;;;2.17;;
7076;SDS011;3579;48.956;9.154;2023-08-01T03:54:32;2.40;;;2.20;;
7076;SDS011;3579;48.956;9.154;2023-08-01T03:56:58;2.27;;;2.03;;
7076;SDS011;3579;48.956;9.154;2023-08-01T03:59:25;2.70;;;2.20;;
7076;SDS011;3579;48.956;9.154;2023-08-01T04:01:51;3.27;;;2.30;;
7076;SDS011;3579;48.956;9.154;2023-08-01T04:04:17;2.57;;;2.10;;
7076;SDS011;3579;48.956;9.154;2023-08-01T04:06:45;2.83;;;2.20;;
7076;SDS011;3579;48.956;9.154;2023-08-01T04:09:11;2.70;;;2.40;;
7076;SDS011;3579;48.956;9.154;2023-08-01T04:11:37;2.83;;;2.33;;
7076;SDS011;3579;48.956;9.154;2023-08-01T04:14:03;2.50;;;2.30;;
7076;SDS011;3579;48.956;9.154;2023-08-01T04:16:29;2.30;;;2.10;;
7076;SDS011;3579;48.956;9.154;2023-08-01T04:18:55;2.40;;;2.20;;
7076;SDS011;3579;48.956;9.154;2023-08-01T04:21:21;2.17;;;1.87;;
7076;SDS011;3579;48.956;9.154;2023-08-01T04:23:47;2.73;;;2.10;;
7076;SDS011;3579;48.956;9.154;2023-08-01T04:26:13;2.50;;;1.87;;
7076;SDS011;3579;48.956;9.154;2023-08-01T04:28:39;2.60;;;2.37;;
7076;SDS011;3579;48.956;9.154;2023-08-01T04:31:05;2.80;;;2.20;;
7076;SDS011;3579;48.956;9.154;2023-08-01T04:33:31;3.60;;;2.30;;
7076;SDS011;3579;48.956;9.154;2023-08-01T04:35:58;2.10;;;1.87;;
7076;SDS011;3579;48.956;9.154;2023-08-01T04:38:24;2.50;;;2.30;;
7076;SDS011;3579;48.956;9.154;2023-08-01T04:40:50;2.30;;;2.10;;
7076;SDS011;3579;48.956;9.154;2023-08-01T04:43:16;3.43;;;2.37;;
7076;SDS011;3579;48.956;9.154;2023-08-01T04:45:42;2.40;;;2.20;;
7076;SDS011;3579;48.956;9.154;2023-08-01T04:48:08;3.73;;;2.43;;
7076;SDS011;3579;48.956;9.154;2023-08-01T04:50:34;2.73;;;2.13;;
7076;SDS011;3579;48.956;9.154;2023-08-01T04:53:00;3.13;;;2.23;;
7076;SDS011;3579;48.956;9.154;2023-08-01T04:55:26;2.23;;;2.03;;
7076;SDS011;3579;48.956;9.154;2023-08-01T04:57:52;2.60;;;2.30;;
7076;SDS011;3579;48.956;9.154;2023-08-01T05:00:18;2.87;;;2.30;;
7076;SDS011;3579;48.956;9.154;2023-08-01T05:02:44;2.40;;;2.20;;
7076;SDS011;3579;48.956;9.154;2023-08-01T05:05:10;2.60;;;2.30;;
7076;SDS011;3579;48.956;9.154;2023-08-01T05:07:36;3.10;;;2.27;;
7076;SDS011;3579;48.956;9.154;2023-08-01T05:10:02;2.40;;;2.10;;
7076;SDS011;3579;48.956;9.154;2023-08-01T05:12:28;3.23;;;2.23;;
7076;SDS011;3579;48.956;9.154;2023-08-01T05:14:54;2.90;;;2.30;;
7076;SDS011;3579;48.956;9.154;2023-08-01T05:17:20;2.53;;;2.20;;
7076;SDS011;3579;48.956;9.154;2023-08-01T05:19:47;2.73;;;2.17;;
7076;SDS011;3579;48.956;9.154;2023-08-01T05:22:13;2.70;;;2.30;;
7076;SDS011;3579;48.956;9.154;2023-08-01T05:24:39;2.13;;;1.93;;
7076;SDS011;3579;48.956;9.154;2023-08-01T05:27:05;4.20;;;2.23;;
7076;SDS011;3579;48.956;9.154;2023-08-01T05:29:31;2.20;;;2.00;;
7076;SDS011;3579;48.956;9.154;2023-08-01T05:31:58;3.13;;;2.43;;
7076;SDS011;3579;48.956;9.154;2023-08-01T05:34:24;2.50;;;2.30;;
7076;SDS011;3579;48.956;9.154;2023-08-01T05:36:50;3.30;;;2.37;;
7076;SDS011;3579;48.956;9.154;2023-08-01T05:39:16;2.87;;;2.23;;
7076;SDS011;3579;48.956;9.154;2023-08-01T05:41:43;2.77;;;2.20;;
7076;SDS011;3579;48.956;9.154;2023-08-01T05:44:09;2.30;;;2.10;;
7076;SDS011;3579;48.956;9.154;2023-08-01T05:46:35;3.57;;;2.43;;
7076;SDS011;3579;48.956;9.154;2023-08-01T05:49:01;2.70;;;2.20;;
7076;SDS011;3579;48.956;9.154;2023-08-01T05:51:27;2.43;;;2.10;;
7076;SDS011;3579;48.956;9.154;2023-08-01T05:53:53;2.20;;;2.00;;
7076;SDS011;3579;48.956;9.154;2023-08-01T05:56:19;2.90;;;2.47;;
7076;SDS011;3579;48.956;9.154;2023-08-01T05:58:45;3.00;;;2.43;;
7076;SDS011;3579;48.956;9.154;2023-08-01T06:01:11;3.07;;;2.47;;
7076;SDS011;3579;48.956;9.154;2023-08-01T06:03:37;2.90;;;2.60;;
7076;SDS011;3579;48.956;9.154;2023-08-01T06:06:04;3.70;;;2.30;;
7076;SDS011;3579;48.956;9.154;2023-08-01T06:08:30;2.83;;;2.40;;
7076;SDS011;3579;48.956;9.154;2023-08-01T06:10:56;4.80;;;2.47;;
7076;SDS011;3579;48.956;9.154;2023-08-01T06:13:22;4.03;;;2.90;;
7076;SDS011;3579;48.956;9.154;2023-08-01T06:15:48;3.80;;;2.53;;
7076;SDS011;3579;48.956;9.154;2023-08-01T06:18:15;5.60;;;2.90;;
7076;SDS011;3579;48.956;9.154;2023-08-01T06:20:41;4.40;;;2.87;;
7076;SDS011;3579;48.956;9.154;2023-08-01T06:23:07;6.00;;;3.07;;
7076;SDS011;3579;48.956;9.154;2023-08-01T06:25:33;3.70;;;2.60;;
7076;SDS011;3579;48.956;9.154;2023-08-01T06:27:59;4.73;;;2.90;;
7076;SDS011;3579;48.956;9.154;2023-08-01T06:30:26;5.13;;;2.80;;
7076;SDS011;3579;48.956;9.154;2023-08-01T06:32:52;9.40;;;3.47;;
7076;SDS011;3579;48.956;9.154;2023-08-01T06:35:18;3.00;;;2.60;;
7076;SDS011;3579;48.956;9.154;2023-08-01T06:37:45;4.63;;;2.87;;
7076;SDS011;3579;48.956;9.154;2023-08-01T06:40:11;3.97;;;2.80;;
7076;SDS011;3579;48.956;9.154;2023-08-01T06:42:37;3.57;;;2.77;;
7076;SDS011;3579;48.956;9.154;2023-08-01T06:45:04;4.33;;;2.87;;
7076;SDS011;3579;48.956;9.154;2023-08-01T06:47:30;3.23;;;2.70;;
7076;SDS011;3579;48.956;9.154;2023-08-01T06:49:56;4.30;;;2.87;;
7076;SDS011;3579;48.956;9.154;2023-08-01T06:52:22;5.77;;;3.37;;
7076;SDS011;3579;48.956;9.154;2023-08-01T06:54:48;3.03;;;2.73;;
7076;SDS011;3579;48.956;9.154;2023-08-01T06:57:14;5.73;;;3.10;;
7076;SDS011;3579;48.956;9.154;2023-08-01T06:59:41;4.83;;;3.40;;
7076;SDS011;3579;48.956;9.154;2023-08-01T07:02:07;4.33;;;3.00;;
7076;SDS011;3579;48.956;9.154;2023-08-01T07:04:34;6.20;;;3.13;;
7076;SDS011;3579;48.956;9.154;2023-08-01T07:07:00;6.77;;;3.17;;
7076;SDS011;3579;48.956;9.154;2023-08-01T07:09:26;4.57;;;3.20;;
7076;SDS011;3579;48.956;9.154;2023-08-01T07:11:52;6.57;;;3.17;;
7076;SDS011;3579;48.956;9.154;2023-08-01T07:14:18;4.20;;;3.17;;
7076;SDS011;3579;48.956;9.154;2023-08-01T07:16:44;5.60;;;3.10;;
7076;SDS011;3579;48.956;9.154;2023-08-01T07:19:10;4.23;;;3.10;;
7076;SDS011;3579;48.956;9.154;2023-08-01T07:21:36;5.43;;;3.60;;
7076;SDS011;3579;48.956;9.154;2023-08-01T07:24:02;5.23;;;3.30;;
7076;SDS011;3579;48.956;9.154;2023-08-01T07:26:28;4.80;;;3.47;;
7076;SDS011;3579;48.956;9.154;2023-08-01T07:28:55;7.00;;;3.37;;
7076;SDS011;3579;48.956;9.154;2023-08-01T07:31:21;4.90;;;3.67;;
7076;SDS011;3579;48.956;9.154;2023-08-01T07:33:47;5.77;;;3.50;;
7076;SDS011;3579;48.956;9.154;2023-08-01T07:36:13;5.53;;;3.50;;
7076;SDS011;3579;48.956;9.154;2023-08-01T07:38:39;5.37;;;3.60;;
7076;SDS011;3579;48.956;9.154;2023-08-01T07:41:05;8.60;;;3.47;;
7076;SDS011;3579;48.956;9.154;2023-08-01T07:43:34;9.00;;;3.83;;
7076;SDS011;3579;48.956;9.154;2023-08-01T07:46:00;7.47;;;3.60;;
7076;SDS011;3579;48.956;9.154;2023-08-01T07:48:26;5.37;;;3.40;;
7076;SDS011;3579;48.956;9.154;2023-08-01T07:50:52;6.07;;;3.40;;
7076;SDS011;3579;48.956;9.154;2023-08-01T07:53:18;8.60;;;3.80;;
7076;SDS011;3579;48.956;9.154;2023-08-01T07:55:45;9.47;;;4.27;;
7076;SDS011;3579;48.956;9.154;2023-08-01T07:58:11;5.47;;;3.80;;
7076;SDS011;3579;48.956;9.154;2023-08-01T08:00:37;6.97;;;3.60;;
7076;SDS011;3579;48.956;9.154;2023-08-01T08:03:04;8.20;;;4.07;;
7076;SDS011;3579;48.956;9.154;2023-08-01T08:05:32;7.07;;;4.13;;
7076;SDS011;3579;48.956;9.154;2023-08-01T08:07:58;4.97;;;4.03;;
7076;SDS011;3579;48.956;9.154;2023-08-01T08:10:24;6.07;;;3.80;;
7076;SDS011;3579;48.956;9.154;2023-08-01T08:12:50;5.43;;;3.77;;
7076;SDS011;3579;48.956;9.154;2023-08-01T08:15:16;8.17;;;4.17;;
7076;SDS011;3579;48.956;9.154;2023-08-01T08:17:43;5.57;;;3.90;;
7076;SDS011;3579;48.956;9.154;2023-08-01T08:20:09;5.00;;;3.90;;
7076;SDS011;3579;48.956;9.154;2023-08-01T08:22:35;5.87;;;3.70;;
7076;SDS011;3579;48.956;9.154;2023-08-01T08:25:01;6.53;;;4.13;;
7076;SDS011;3579;48.956;9.154;2023-08-01T08:27:27;6.73;;;4.13;;
7076;SDS011;3579;48.956;9.154;2023-08-01T08:29:53;15.23;;;4.23;;
7076;SDS011;3579;48.956;9.154;2023-08-01T08:32:20;8.98;;;4.22;;
7076;SDS011;3579;48.956;9.154;2023-08-01T08:34:46;8.87;;;3.80;;
7076;SDS011;3579;48.956;9.154;2023-08-01T08:37:12;6.97;;;4.00;;
7076;SDS011;3579;48.956;9.154;2023-08-01T08:39:38;8.93;;;4.13;;
7076;SDS011;3579;48.956;9.154;2023-08-01T08:42:05;5.57;;;3.70;;
7076;SDS011;3579;48.956;9.154;2023-08-01T08:44:31;7.23;;;3.97;;
7076;SDS011;3579;48.956;9.154;2023-08-01T08:47:03;6.57;;;3.67;;
7076;SDS011;3579;48.956;9.154;2023-08-01T08:49:29;4.80;;;3.70;;
7076;SDS011;3579;48.956;9.154;2023-08-01T08:51:57;6.97;;;4.17;;
7076;SDS011;3579;48.956;9.154;2023-08-01T08:54:24;6.93;;;4.30;;
7076;SDS011;3579;48.956;9.154;2023-08-01T08:56:51;5.73;;;3.83;;
7076;SDS011;3579;48.956;9.154;2023-08-01T08:59:18;4.87;;;3.97;;
7076;SDS011;3579;48.956;9.154;2023-08-01T09:01:45;7.53;;;3.90;;
7076;SDS011;3579;48.956;9.154;2023-08-01T09:04:11;5.57;;;4.03;;
7076;SDS011;3579;48.956;9.154;2023-08-01T09:06:40;6.87;;;3.63;;
7076;SDS011;3579;48.956;9.154;2023-08-01T09:09:11;7.77;;;3.70;;
7076;SDS011;3579;48.956;9.154;2023-08-01T09:11:47;4.97;;;3.57;;
7076;SDS011;3579;48.956;9.154;2023-08-01T09:14:15;4.37;;;3.80;;
7076;SDS011;3579;48.956;9.154;2023-08-01T09:16:42;8.17;;;3.77;;
7076;SDS011;3579;48.956;9.154;2023-08-01T09:19:10;5.10;;;3.33;;
7076;SDS011;3579;48.956;9.154;2023-08-01T09:21:38;3.90;;;3.30;;
7076;SDS011;3579;48.956;9.154;2023-08-01T09:24:11;6.27;;;3.83;;
7076;SDS011;3579;48.956;9.154;2023-08-01T09:26:39;7.27;;;3.60;;
7076;SDS011;3579;48.956;9.154;2023-08-01T09:29:06;4.90;;;3.30;;
7076;SDS011;3579;48.956;9.154;2023-08-01T09:31:33;5.03;;;3.40;;
7076;SDS011;3579;48.956;9.154;2023-08-01T09:34:17;6.50;;;3.43;;
7076;SDS011;3579;48.956;9.154;2023-08-01T09:36:47;6.63;;;3.50;;
7076;SDS011;3579;48.956;9.154;2023-08-01T09:39:19;4.43;;;3.30;;
7076;SDS011;3579;48.956;9.154;2023-08-01T09:41:54;6.57;;;3.20;;
7076;SDS011;3579;48.956;9.154;2023-08-01T09:44:25;4.63;;;3.90;;
7076;SDS011;3579;48.956;9.154;2023-08-01T09:46:58;4.57;;;3.20;;
7076;SDS011;3579;48.956;9.154;2023-08-01T09:49:28;5.93;;;3.60;;
7076;SDS011;3579;48.956;9.154;2023-08-01T09:51:55;5.43;;;3.50;;
7076;SDS011;3579;48.956;9.154;2023-08-01T09:54:23;7.23;;;3.50;;
7076;SDS011;3579;48.956;9.154;2023-08-01T09:56:50;4.63;;;3.20;;
7076;SDS011;3579;48.956;9.154;2023-08-01T09:59:19;4.10;;;3.20;;
7076;SDS011;3579;48.956;9.154;2023-08-01T10:01:50;6.43;;;3.20;;
7076;SDS011;3579;48.956;9.154;2023-08-01T10:04:20;4.60;;;3.00;;
7076;SDS011;3579;48.956;9.154;2023-08-01T10:06:58;4.90;;;3.37;;
7076;SDS011;3579;48.956;9.154;2023-08-01T10:09:26;5.03;;;3.00;;
7076;SDS011;3579;48.956;9.154;2023-08-01T10:11:56;4.83;;;3.20;;
7076;SDS011;3579;48.956;9.154;2023-08-01T10:14:23;5.40;;;3.27;;
7076;SDS011;3579;48.956;9.154;2023-08-01T10:19:48;3.80;;;3.17;;
7076;SDS011;3579;48.956;9.154;2023-08-01T10:22:17;4.03;;;3.10;;
7076;SDS011;3579;48.956;9.154;2023-08-01T10:24:44;4.23;;;3.10;;
7076;SDS011;3579;48.956;9.154;2023-08-01T10:27:13;3.93;;;2.93;;
7076;SDS011;3579;48.956;9.154;2023-08-01T10:29:41;4.73;;;3.07;;
7076;SDS011;3579;48.956;9.154;2023-08-01T10:32:08;3.43;;;2.90;;
7076;SDS011;3579;48.956;9.154;2023-08-01T10:34:35;5.40;;;2.93;;
7076;SDS011;3579;48.956;9.154;2023-08-01T10:37:01;3.73;;;3.10;;
7076;SDS011;3579;48.956;9.154;2023-08-01T10:39:28;4.17;;;3.00;;
7076;SDS011;3579;48.956;9.154;2023-08-01T10:41:58;3.53;;;2.83;;
7076;SDS011;3579;48.956;9.154;2023-08-01T10:44:25;5.73;;;2.90;;
7076;SDS011;3579;48.956;9.154;2023-08-01T10:46:57;3.87;;;2.90;;
7076;SDS011;3579;48.956;9.154;2023-08-01T10:52:01;4.27;;;2.70;;
7076;SDS011;3579;48.956;9.154;2023-08-01T10:54:29;3.23;;;2.50;;
7076;SDS011;3579;48.956;9.154;2023-08-01T10:56:56;4.10;;;2.87;;
7076;SDS011;3579;48.956;9.154;2023-08-01T10:59:25;3.83;;;2.87;;
7076;SDS011;3579;48.956;9.154;2023-08-01T11:01:52;3.70;;;2.53;;
7076;SDS011;3579;48.956;9.154;2023-08-01T11:04:23;2.93;;;2.60;;
7076;SDS011;3579;48.956;9.154;2023-08-01T11:06:50;3.43;;;2.77;;
7076;SDS011;3579;48.956;9.154;2023-08-01T11:09:21;3.70;;;2.60;;
7076;SDS011;3579;48.956;9.154;2023-08-01T11:11:49;4.67;;;2.70;;
7076;SDS011;3579;48.956;9.154;2023-08-01T11:14:19;6.13;;;2.90;;
7076;SDS011;3579;48.956;9.154;2023-08-01T11:16:46;3.03;;;2.47;;
7076;SDS011;3579;48.956;9.154;2023-08-01T11:19:20;4.00;;;2.73;;
7076;SDS011;3579;48.956;9.154;2023-08-01T11:21:47;3.07;;;2.03;;
7076;SDS011;3579;48.956;9.154;2023-08-01T11:24:14;2.33;;;1.60;;
7076;SDS011;3579;48.956;9.154;2023-08-01T11:26:45;2.37;;;1.70;;
7076;SDS011;3579;48.956;9.154;2023-08-01T11:29:12;4.03;;;1.93;;
7076;SDS011;3579;48.956;9.154;2023-08-01T11:31:46;4.83;;;1.90;;
7076;SDS011;3579;48.956;9.154;2023-08-01T11:34:21;4.87;;;1.80;;
7076;SDS011;3579;48.956;9.154;2023-08-01T11:36:47;3.43;;;1.80;;
7076;SDS011;3579;48.956;9.154;2023-08-01T11:39:14;4.07;;;1.70;;
7076;SDS011;3579;48.956;9.154;2023-08-01T11:41:41;3.70;;;1.70;;
7076;SDS011;3579;48.956;9.154;2023-08-01T11:44:08;3.23;;;2.00;;
7076;SDS011;3579;48.956;9.154;2023-08-01T11:46:37;2.50;;;1.67;;
7076;SDS011;3579;48.956;9.154;2023-08-01T11:49:05;4.77;;;1.50;;
7076;SDS011;3579;48.956;9.154;2023-08-01T11:51:38;3.03;;;1.70;;
7076;SDS011;3579;48.956;9.154;2023-08-01T11:54:09;2.47;;;1.70;;
7076;SDS011;3579;48.956;9.154;2023-08-01T11:56:37;4.33;;;1.70;;
7076;SDS011;3579;48.956;9.154;2023-08-01T11:59:10;2.27;;;1.60;;
7076;SDS011;3579;48.956;9.154;2023-08-01T12:01:41;4.87;;;2.00;;
7076;SDS011;3579;48.956;9.154;2023-08-01T12:04:12;4.70;;;1.80;;
7076;SDS011;3579;48.956;9.154;2023-08-01T12:06:49;3.77;;;1.80;;
7076;SDS011;3579;48.956;9.154;2023-08-01T12:09:15;2.70;;;1.90;;
7076;SDS011;3579;48.956;9.154;2023-08-01T12:11:41;2.93;;;1.90;;
7076;SDS011;3579;48.956;9.154;2023-08-01T12:14:08;3.67;;;1.67;;
7076;SDS011;3579;48.956;9.154;2023-08-01T12:16:37;6.23;;;1.90;;
7076;SDS011;3579;48.956;9.154;2023-08-01T12:19:04;3.07;;;1.90;;
7076;SDS011;3579;48.956;9.154;2023-08-01T12:21:31;4.07;;;1.90;;
7076;SDS011;3579;48.956;9.154;2023-08-01T12:23:59;3.60;;;1.80;;
7076;SDS011;3579;48.956;9.154;2023-08-01T12:26:25;3.47;;;1.90;;
7076;SDS011;3579;48.956;9.154;2023-08-01T12:28:52;2.80;;;1.50;;
7076;SDS011;3579;48.956;9.154;2023-08-01T12:31:18;3.43;;;1.60;;
7076;SDS011;3579;48.956;9.154;2023-08-01T12:33:45;2.53;;;1.70;;
7076;SDS011;3579;48.956;9.154;2023-08-01T12:36:12;3.10;;;1.50;;
7076;SDS011;3579;48.956;9.154;2023-08-01T12:38:38;3.00;;;2.03;;
7076;SDS011;3579;48.956;9.154;2023-08-01T12:41:04;2.47;;;1.77;;
7076;SDS011;3579;48.956;9.154;2023-08-01T12:43:31;4.03;;;2.03;;
7076;SDS011;3579;48.956;9.154;2023-08-01T12:45:57;3.20;;;1.97;;
7076;SDS011;3579;48.956;9.154;2023-08-01T12:48:27;3.00;;;1.80;;
7076;SDS011;3579;48.956;9.154;2023-08-01T12:50:54;4.37;;;1.97;;
7076;SDS011;3579;48.956;9.154;2023-08-01T12:53:20;3.73;;;1.80;;
7076;SDS011;3579;48.956;9.154;2023-08-01T12:55:47;3.47;;;1.93;;
7076;SDS011;3579;48.956;9.154;2023-08-01T12:58:14;4.03;;;1.97;;
7076;SDS011;3579;48.956;9.154;2023-08-01T13:00:41;3.73;;;1.83;;
7076;SDS011;3579;48.956;9.154;2023-08-01T13:03:09;3.30;;;1.90;;
7076;SDS011;3579;48.956;9.154;2023-08-01T13:05:36;3.33;;;1.90;;
7076;SDS011;3579;48.956;9.154;2023-08-01T13:08:03;2.50;;;1.80;;
7076;SDS011;3579;48.956;9.154;2023-08-01T13:10:32;2.27;;;1.67;;
7076;SDS011;3579;48.956;9.154;2023-08-01T13:12:59;4.53;;;1.90;;
7076;SDS011;3579;48.956;9.154;2023-08-01T13:15:25;5.07;;;2.00;;
7076;SDS011;3579;48.956;9.154;2023-08-01T13:17:52;2.47;;;2.00;;
7076;SDS011;3579;48.956;9.154;2023-08-01T13:20:19;2.50;;;1.90;;
7076;SDS011;3579;48.956;9.154;2023-08-01T13:22:46;3.00;;;1.90;;
7076;SDS011;3579;48.956;9.154;2023-08-01T13:25:14;4.47;;;1.90;;
7076;SDS011;3579;48.956;9.154;2023-08-01T13:27:43;3.70;;;1.90;;
7076;SDS011;3579;48.956;9.154;2023-08-01T13:30:09;3.03;;;1.80;;
7076;SDS011;3579;48.956;9.154;2023-08-01T13:32:40;2.73;;;1.70;;
7076;SDS011;3579;48.956;9.154;2023-08-01T13:35:06;3.30;;;1.80;;
7076;SDS011;3579;48.956;9.154;2023-08-01T13:37:33;4.60;;;1.80;;
7076;SDS011;3579;48.956;9.154;2023-08-01T13:40:00;2.93;;;1.90;;
7076;SDS011;3579;48.956;9.154;2023-08-01T13:42:26;2.70;;;1.70;;
7076;SDS011;3579;48.956;9.154;2023-08-01T13:44:56;3.13;;;1.77;;
7076;SDS011;3579;48.956;9.154;2023-08-01T13:47:22;3.63;;;2.13;;
7076;SDS011;3579;48.956;9.154;2023-08-01T13:49:48;1.80;;;1.50;;
7076;SDS011;3579;48.956;9.154;2023-08-01T13:52:14;2.17;;;1.57;;
7076;SDS011;3579;48.956;9.154;2023-08-01T13:54:40;3.67;;;1.90;;
7076;SDS011;3579;48.956;9.154;2023-08-01T13:57:07;3.80;;;1.90;;
7076;SDS011;3579;48.956;9.154;2023-08-01T13:59:33;2.87;;;1.80;;
7076;SDS011;3579;48.956;9.154;2023-08-01T14:02:00;4.00;;;1.90;;
7076;SDS011;3579;48.956;9.154;2023-08-01T14:04:26;2.67;;;1.90;;
7076;SDS011;3579;48.956;9.154;2023-08-01T14:06:53;1.90;;;1.57;;
7076;SDS011;3579;48.956;9.154;2023-08-01T14:09:19;3.97;;;1.80;;
7076;SDS011;3579;48.956;9.154;2023-08-01T14:11:45;2.20;;;1.60;;
7076;SDS011;3579;48.956;9.154;2023-08-01T14:14:11;5.30;;;1.70;;
7076;SDS011;3579;48.956;9.154;2023-08-01T14:16:37;3.90;;;1.80;;
7076;SDS011;3579;48.956;9.154;2023-08-01T14:19:03;3.47;;;1.70;;
7076;SDS011;3579;48.956;9.154;2023-08-01T14:21:29;3.30;;;1.97;;
7076;SDS011;3579;48.956;9.154;2023-08-01T14:23:56;2.93;;;1.80;;
7076;SDS011;3579;48.956;9.154;2023-08-01T14:26:22;3.33;;;1.77;;
7076;SDS011;3579;48.956;9.154;2023-08-01T14:28:48;3.27;;;1.60;;
7076;SDS011;3579;48.956;9.154;2023-08-01T14:31:17;6.37;;;1.70;;
7076;SDS011;3579;48.956;9.154;2023-08-01T14:33:44;2.80;;;1.70;;
7076;SDS011;3579;48.956;9.154;2023-08-01T14:36:10;5.30;;;1.70;;
7076;SDS011;3579;48.956;9.154;2023-08-01T14:38:40;2.27;;;1.70;;
7076;SDS011;3579;48.956;9.154;2023-08-01T14:41:07;2.40;;;1.80;;
7076;SDS011;3579;48.956;9.154;2023-08-01T14:43:33;2.63;;;1.60;;
7076;SDS011;3579;48.956;9.154;2023-08-01T14:46:02;2.93;;;1.87;;
7076;SDS011;3579;48.956;9.154;2023-08-01T14:48:28;2.17;;;1.40;;
7076;SDS011;3579;48.956;9.154;2023-08-01T14:50:54;4.57;;;1.80;;
7076;SDS011;3579;48.956;9.154;2023-08-01T14:53:21;1.97;;;1.70;;
7076;SDS011;3579;48.956;9.154;2023-08-01T14:55:55;2.27;;;1.50;;
7076;SDS011;3579;48.956;9.154;2023-08-01T14:58:22;1.87;;;1.60;;
7076;SDS011;3579;48.956;9.154;2023-08-01T15:00:48;2.77;;;1.70;;
7076;SDS011;3579;48.956;9.154;2023-08-01T15:03:14;3.77;;;1.60;;
7076;SDS011;3579;48.956;9.154;2023-08-01T15:05:40;2.30;;;1.80;;
7076;SDS011;3579;48.956;9.154;2023-08-01T15:08:06;1.90;;;1.67;;
7076;SDS011;3579;48.956;9.154;2023-08-01T15:10:32;2.47;;;1.60;;
7076;SDS011;3579;48.956;9.154;2023-08-01T15:13:01;2.87;;;1.50;;
7076;SDS011;3579;48.956;9.154;2023-08-01T15:15:27;2.40;;;1.80;;
7076;SDS011;3579;48.956;9.154;2023-08-01T15:17:54;2.53;;;1.40;;